sensor_id;sensor_type;location;lat;lon;timestamp;pressure;altitude;pressure_sealevel;temperature
79172;BMP280;68597;53.238;-1.418;2023-04-29T00:01:17;100972.09;;;10.08
79172;BMP280;68597;53.238;-1.418;2023-04-29T00:03:42;100979.97;;;10.09
79172;BMP280;68597;53.238;-1.418;2023-04-29T00:06:12;100982.47;;;10.13
79172;BMP280;68597;53.238;-1.418;2023-04-29T00:08:37;100975.63;;;10.14
79172;BMP280;68597;53.238;-1.418;2023-04-29T00:11:03;100982.75;;;10.15
79172;BMP280;68597;53.238;-1.418;2023-04-29T00:13:29;100983.47;;;10.15
79172;BMP280;68597;53.238;-1.418;2023-04-29T00:15:56;100987.25;;;10.18
79172;BMP280;68597;53.238;-1.418;2023-04-29T00:18:22;100995.88;;;10.20
79172;BMP280;68597;53.238;-1.418;2023-04-29T00:20:48;100963.53;;;10.06
79172;BMP280;68597;53.238;-1.418;2023-04-29T00:23:14;100993.34;;;10.22
79172;BMP280;68597;53.238;-1.418;2023-04-29T00:25:39;100982.19;;;10.22
79172;BMP280;68597;53.238;-1.418;2023-04-29T00:28:05;100983.47;;;10.15
79172;BMP280;68597;53.238;-1.418;2023-04-29T00:30:32;100989.28;;;10.23
79172;BMP280;68597;53.238;-1.418;2023-04-29T00:33:00;100991.03;;;10.26
79172;BMP280;68597;53.238;-1.418;2023-04-29T00:35:25;101005.22;;;10.28
79172;BMP280;68597;53.238;-1.418;2023-04-29T00:37:51;100997.84;;;10.30
79172;BMP280;68597;53.238;-1.418;2023-04-29T00:40:17;100993.03;;;10.31
79172;BMP280;68597;53.238;-1.418;2023-04-29T00:42:43;100994.53;;;10.32
79172;BMP280;68597;53.238;-1.418;2023-04-29T00:45:10;100993.75;;;10.31
79172;BMP280;68597;53.238;-1.418;2023-04-29T00:47:36;100992.22;;;10.36
79172;BMP280;68597;53.238;-1.418;2023-04-29T00:50:04;100989.69;;;10.38
79172;BMP280;68597;53.238;-1.418;2023-04-29T00:52:30;100983.59;;;10.39
79172;BMP280;68597;53.238;-1.418;2023-04-29T00:54:56;100991.66;;;10.43
79172;BMP280;68597;53.238;-1.418;2023-04-29T00:57:22;100990.91;;;10.42
79172;BMP280;68597;53.238;-1.418;2023-04-29T00:59:48;100995.16;;;10.49
79172;BMP280;68597;53.238;-1.418;2023-04-29T01:02:14;100989.56;;;10.49
79172;BMP280;68597;53.238;-1.418;2023-04-29T01:04:41;100992.13;;;10.53
79172;BMP280;68597;53.238;-1.418;2023-04-29T01:07:15;100998.69;;;10.55
79172;BMP280;68597;53.238;-1.418;2023-04-29T01:09:49;100999.47;;;10.56
79172;BMP280;68597;53.238;-1.418;2023-04-29T01:12:20;100994.59;;;10.56
79172;BMP280;68597;53.238;-1.418;2023-04-29T01:14:57;100996.13;;;10.57
79172;BMP280;68597;53.238;-1.418;2023-04-29T01:17:30;100996.88;;;10.58
79172;BMP280;68597;53.238;-1.418;2023-04-29T01:20:01;100998.91;;;10.57
79172;BMP280;68597;53.238;-1.418;2023-04-29T01:22:30;100996.13;;;10.57
79172;BMP280;68597;53.238;-1.418;2023-04-29T01:24:58;100991.09;;;10.50
79172;BMP280;68597;53.238;-1.418;2023-04-29T01:27:28;100998.69;;;10.55
79172;BMP280;68597;53.238;-1.418;2023-04-29T01:30:16;101007.28;;;10.57
79172;BMP280;68597;53.238;-1.418;2023-04-29T01:32:52;101008.81;;;10.58
79172;BMP280;68597;53.238;-1.418;2023-04-29T01:35:29;101008.81;;;10.58
79172;BMP280;68597;53.238;-1.418;2023-04-29T01:37:59;101010.09;;;10.57
79172;BMP280;68597;53.238;-1.418;2023-04-29T01:40:34;101010.09;;;10.57
79172;BMP280;68597;53.238;-1.418;2023-04-29T01:43:07;101009.59;;;10.59
79172;BMP280;68597;53.238;-1.418;2023-04-29T01:45:37;101003.25;;;10.58
79172;BMP280;68597;53.238;-1.418;2023-04-29T01:48:04;100999.16;;;10.59
79172;BMP280;68597;53.238;-1.418;2023-04-29T01:50:31;101006.03;;;10.58
79172;BMP280;68597;53.238;-1.418;2023-04-29T01:53:06;101008.81;;;10.58
79172;BMP280;68597;53.238;-1.418;2023-04-29T01:55:35;101008.81;;;10.58
79172;BMP280;68597;53.238;-1.418;2023-04-29T01:58:12;101012.13;;;10.57
79172;BMP280;68597;53.238;-1.418;2023-04-29T02:00:47;101011.34;;;10.56
79172;BMP280;68597;53.238;-1.418;2023-04-29T02:03:13;101007.28;;;10.57
79172;BMP280;68597;53.238;-1.418;2023-04-29T02:05:43;101015.16;;;10.59
79172;BMP280;68597;53.238;-1.418;2023-04-29T02:08:09;101012.88;;;10.57
79172;BMP280;68597;53.238;-1.418;2023-04-29T02:10:50;101016.16;;;10.61
79172;BMP280;68597;53.238;-1.418;2023-04-29T02:13:25;101010.81;;;10.63
79172;BMP280;68597;53.238;-1.418;2023-04-29T02:15:51;101022.44;;;10.67
79172;BMP280;68597;53.238;-1.418;2023-04-29T02:18:17;101011.28;;;10.67
79172;BMP280;68597;53.238;-1.418;2023-04-29T02:20:43;101025.69;;;10.77
79172;BMP280;68597;53.238;-1.418;2023-04-29T02:23:09;101020.34;;;10.79
79172;BMP280;68597;53.238;-1.418;2023-04-29T02:25:35;101005.63;;;10.73
79172;BMP280;68597;53.238;-1.418;2023-04-29T02:28:03;101013.16;;;10.83
79172;BMP280;68597;53.238;-1.418;2023-04-29T02:30:28;101023.06;;;10.84
79172;BMP280;68597;53.238;-1.418;2023-04-29T02:32:54;101022.31;;;10.84
79172;BMP280;68597;53.238;-1.418;2023-04-29T02:35:20;101016.97;;;10.86
79172;BMP280;68597;53.238;-1.418;2023-04-29T02:37:46;101006.09;;;10.82
79172;BMP280;68597;53.238;-1.418;2023-04-29T02:40:12;101016.66;;;10.89
79172;BMP280;68597;53.238;-1.418;2023-04-29T02:42:39;101013.66;;;10.87
79172;BMP280;68597;53.238;-1.418;2023-04-29T02:45:08;101015.44;;;10.85
79172;BMP280;68597;53.238;-1.418;2023-04-29T02:47:34;101011.66;;;10.82
79172;BMP280;68597;53.238;-1.418;2023-04-29T02:50:00;101017.81;;;10.75
79172;BMP280;68597;53.238;-1.418;2023-04-29T02:52:26;101025.72;;;10.71
79172;BMP280;68597;53.238;-1.418;2023-04-29T02:54:52;101019.66;;;10.67
79172;BMP280;68597;53.238;-1.418;2023-04-29T02:57:17;101020.47;;;10.62
79172;BMP280;68597;53.238;-1.418;2023-04-29T02:59:43;101027.09;;;10.59
79172;BMP280;68597;53.238;-1.418;2023-04-29T03:02:10;101019.50;;;10.54
79172;BMP280;68597;53.238;-1.418;2023-04-29T03:04:37;101020.56;;;10.51
79172;BMP280;68597;53.238;-1.418;2023-04-29T03:07:03;101027.16;;;10.48
79172;BMP280;68597;53.238;-1.418;2023-04-29T03:09:28;101026.69;;;10.44
79172;BMP280;68597;53.238;-1.418;2023-04-29T03:11:55;101021.38;;;10.46
79172;BMP280;68597;53.238;-1.418;2023-04-29T03:14:20;101025.16;;;10.43
79172;BMP280;68597;53.238;-1.418;2023-04-29T03:16:47;101028.22;;;10.45
79172;BMP280;68597;53.238;-1.418;2023-04-29T03:19:16;101028.22;;;10.45
79172;BMP280;68597;53.238;-1.418;2023-04-29T03:21:42;101028.22;;;10.45
79172;BMP280;68597;53.238;-1.418;2023-04-29T03:24:08;101018.31;;;10.44
79172;BMP280;68597;53.238;-1.418;2023-04-29T03:26:35;101016.06;;;10.37
79172;BMP280;68597;53.238;-1.418;2023-04-29T03:29:03;101029.22;;;10.42
79172;BMP280;68597;53.238;-1.418;2023-04-29T03:31:28;101023.63;;;10.42
79172;BMP280;68597;53.238;-1.418;2023-04-29T03:33:54;101027.72;;;10.41
79172;BMP280;68597;53.238;-1.418;2023-04-29T03:36:24;101027.72;;;10.41
79172;BMP280;68597;53.238;-1.418;2023-04-29T03:38:59;101029.00;;;10.40
79172;BMP280;68597;53.238;-1.418;2023-04-29T03:41:26;101028.75;;;10.38
79172;BMP280;68597;53.238;-1.418;2023-04-29T03:43:52;101028.75;;;10.38
79172;BMP280;68597;53.238;-1.418;2023-04-29T03:46:18;101025.50;;;10.34
79172;BMP280;68597;53.238;-1.418;2023-04-29T03:48:44;101027.00;;;10.35
79172;BMP280;68597;53.238;-1.418;2023-04-29T03:51:10;101026.75;;;10.33
79172;BMP280;68597;53.238;-1.418;2023-04-29T03:53:38;101020.19;;;10.25
79172;BMP280;68597;53.238;-1.418;2023-04-29T03:56:05;101023.25;;;10.27
79172;BMP280;68597;53.238;-1.418;2023-04-29T03:58:31;101029.84;;;10.29
79172;BMP280;68597;53.238;-1.418;2023-04-29T04:00:57;101029.84;;;10.29
79172;BMP280;68597;53.238;-1.418;2023-04-29T04:03:30;101034.41;;;10.27
79172;BMP280;68597;53.238;-1.418;2023-04-29T04:05:57;101035.41;;;10.24
79172;BMP280;68597;53.238;-1.418;2023-04-29T04:08:23;101047.09;;;10.28
79172;BMP280;68597;53.238;-1.418;2023-04-29T04:10:53;101045.13;;;10.23
79172;BMP280;68597;53.238;-1.418;2023-04-29T04:13:29;101049.63;;;10.26
79172;BMP280;68597;53.238;-1.418;2023-04-29T04:15:55;101040.00;;;10.27
79172;BMP280;68597;53.238;-1.418;2023-04-29T04:18:21;101044.56;;;10.24
79172;BMP280;68597;53.238;-1.418;2023-04-29T04:20:47;101045.31;;;10.25
79172;BMP280;68597;53.238;-1.418;2023-04-29T04:23:13;101038.00;;;10.22
79172;BMP280;68597;53.238;-1.418;2023-04-29T04:25:44;101046.13;;;10.20
79172;BMP280;68597;53.238;-1.418;2023-04-29T04:28:32;101048.41;;;10.16
79172;BMP280;68597;53.238;-1.418;2023-04-29T04:31:04;101054.81;;;10.11
79172;BMP280;68597;53.238;-1.418;2023-04-29T04:33:30;101052.03;;;10.11
79172;BMP280;68597;53.238;-1.418;2023-04-29T04:35:56;101052.81;;;10.06
79172;BMP280;68597;53.238;-1.418;2023-04-29T04:38:22;101056.34;;;10.01
79172;BMP280;68597;53.238;-1.418;2023-04-29T04:40:48;101060.44;;;10.00
79172;BMP280;68597;53.238;-1.418;2023-04-29T04:43:30;101066.28;;;9.96
79172;BMP280;68597;53.238;-1.418;2023-04-29T04:45:56;101066.56;;;9.92
79172;BMP280;68597;53.238;-1.418;2023-04-29T04:48:23;101065.28;;;9.88
79172;BMP280;68597;53.238;-1.418;2023-04-29T04:50:50;101068.09;;;9.82
79172;BMP280;68597;53.238;-1.418;2023-04-29T04:53:16;101069.13;;;9.79
79172;BMP280;68597;53.238;-1.418;2023-04-29T04:55:49;101079.53;;;9.79
79172;BMP280;68597;53.238;-1.418;2023-04-29T04:58:15;101068.66;;;9.75
79172;BMP280;68597;53.238;-1.418;2023-04-29T05:00:45;101072.69;;;9.74
79172;BMP280;68597;53.238;-1.418;2023-04-29T05:03:11;101075.47;;;9.74
79172;BMP280;68597;53.238;-1.418;2023-04-29T05:05:37;101081.56;;;9.73
79172;BMP280;68597;53.238;-1.418;2023-04-29T05:08:03;101075.50;;;9.69
79172;BMP280;68597;53.238;-1.418;2023-04-29T05:10:36;101083.34;;;9.70
79172;BMP280;68597;53.238;-1.418;2023-04-29T05:13:03;101087.44;;;9.69
79172;BMP280;68597;53.238;-1.418;2023-04-29T05:15:29;101085.91;;;9.68
79172;BMP280;68597;53.238;-1.418;2023-04-29T05:18:00;101088.44;;;9.66
79172;BMP280;68597;53.238;-1.418;2023-04-29T05:20:26;101088.94;;;9.70
79172;BMP280;68597;53.238;-1.418;2023-04-29T05:22:53;101096.78;;;9.72
79172;BMP280;68597;53.238;-1.418;2023-04-29T05:25:19;101104.91;;;9.75
79172;BMP280;68597;53.238;-1.418;2023-04-29T05:27:46;101110.44;;;9.81
79172;BMP280;68597;53.238;-1.418;2023-04-29T05:30:15;101104.63;;;9.84
79172;BMP280;68597;53.238;-1.418;2023-04-29T05:32:41;101105.63;;;9.87
79172;BMP280;68597;53.238;-1.418;2023-04-29T05:35:14;101106.34;;;9.98
79172;BMP280;68597;53.238;-1.418;2023-04-29T05:37:40;101102.06;;;9.98
79172;BMP280;68597;53.238;-1.418;2023-04-29T05:40:25;101110.63;;;10.11
79172;BMP280;68597;53.238;-1.418;2023-04-29T05:42:57;101113.66;;;10.13
79172;BMP280;68597;53.238;-1.418;2023-04-29T05:45:23;101111.59;;;10.19
79172;BMP280;68597;53.238;-1.418;2023-04-29T05:47:49;101094.88;;;10.13
79172;BMP280;68597;53.238;-1.418;2023-04-29T05:50:17;101102.44;;;10.29
79172;BMP280;68597;53.238;-1.418;2023-04-29T05:52:44;101112.22;;;10.41
79172;BMP280;68597;53.238;-1.418;2023-04-29T05:55:09;101111.19;;;10.50
79172;BMP280;68597;53.238;-1.418;2023-04-29T05:57:35;101113.44;;;10.57
79172;BMP280;68597;53.238;-1.418;2023-04-29T06:00:01;101120.25;;;10.62
79172;BMP280;68597;53.238;-1.418;2023-04-29T06:02:39;101122.75;;;10.65
79172;BMP280;68597;53.238;-1.418;2023-04-29T06:05:06;101120.22;;;10.67
79172;BMP280;68597;53.238;-1.418;2023-04-29T06:07:50;101114.88;;;10.69
79172;BMP280;68597;53.238;-1.418;2023-04-29T06:10:35;101125.00;;;10.72
79172;BMP280;68597;53.238;-1.418;2023-04-29T06:13:01;101114.88;;;10.69
79172;BMP280;68597;53.238;-1.418;2023-04-29T06:15:27;101135.66;;;10.79
79172;BMP280;68597;53.238;-1.418;2023-04-29T06:17:54;101116.31;;;10.81
79172;BMP280;68597;53.238;-1.418;2023-04-29T06:20:21;101119.34;;;10.83
79172;BMP280;68597;53.238;-1.418;2023-04-29T06:22:49;101125.44;;;10.87
79172;BMP280;68597;53.238;-1.418;2023-04-29T06:25:15;101125.13;;;10.91
79172;BMP280;68597;53.238;-1.418;2023-04-29T06:27:50;101127.88;;;10.96
79172;BMP280;68597;53.238;-1.418;2023-04-29T06:30:18;101131.41;;;11.03
79172;BMP280;68597;53.238;-1.418;2023-04-29T06:32:44;101137.97;;;11.11
79172;BMP280;68597;53.238;-1.418;2023-04-29T06:35:10;101132.56;;;11.18
79172;BMP280;68597;53.238;-1.418;2023-04-29T06:37:52;101135.75;;;11.28
79172;BMP280;68597;53.238;-1.418;2023-04-29T06:40:31;101128.34;;;11.36
79172;BMP280;68597;53.238;-1.418;2023-04-29T06:43:04;101137.31;;;11.53
79172;BMP280;68597;53.238;-1.418;2023-04-29T06:45:47;101139.91;;;11.75
79172;BMP280;68597;53.238;-1.418;2023-04-29T06:48:19;101134.91;;;11.87
79172;BMP280;68597;53.238;-1.418;2023-04-29T06:50:49;101142.53;;;12.11
79172;BMP280;68597;53.238;-1.418;2023-04-29T06:53:18;101148.44;;;12.26
79172;BMP280;68597;53.238;-1.418;2023-04-29T06:55:44;101145.13;;;12.46
79172;BMP280;68597;53.238;-1.418;2023-04-29T06:58:10;101156.59;;;12.80
79172;BMP280;68597;53.238;-1.418;2023-04-29T07:00:37;101160.94;;;13.13
79172;BMP280;68597;53.238;-1.418;2023-04-29T07:03:03;101156.44;;;13.36
79172;BMP280;68597;53.238;-1.418;2023-04-29T07:05:29;101151.06;;;13.51
79172;BMP280;68597;53.238;-1.418;2023-04-29T07:07:55;101160.38;;;13.59
79172;BMP280;68597;53.238;-1.418;2023-04-29T07:10:23;101156.06;;;13.58
79172;BMP280;68597;53.238;-1.418;2023-04-29T07:12:49;101159.84;;;13.60
79172;BMP280;68597;53.238;-1.418;2023-04-29T07:15:15;101161.66;;;13.58
79172;BMP280;68597;53.238;-1.418;2023-04-29T07:17:41;101163.94;;;13.59
79172;BMP280;68597;53.238;-1.418;2023-04-29T07:20:08;101146.13;;;13.44
79172;BMP280;68597;53.238;-1.418;2023-04-29T07:22:34;101150.66;;;13.47
79172;BMP280;68597;53.238;-1.418;2023-04-29T07:25:01;101158.66;;;13.56
79172;BMP280;68597;53.238;-1.418;2023-04-29T07:27:28;101173.53;;;13.64
79172;BMP280;68597;53.238;-1.418;2023-04-29T07:29:54;101166.66;;;13.65
79172;BMP280;68597;53.238;-1.418;2023-04-29T07:32:20;101161.44;;;13.69
79172;BMP280;68597;53.238;-1.418;2023-04-29T07:34:46;101176.78;;;13.81
79172;BMP280;68597;53.238;-1.418;2023-04-29T07:37:12;101177.44;;;13.87
79172;BMP280;68597;53.238;-1.418;2023-04-29T07:39:38;101184.47;;;13.94
79172;BMP280;68597;53.238;-1.418;2023-04-29T07:42:04;101173.03;;;13.92
79172;BMP280;68597;53.238;-1.418;2023-04-29T07:44:32;101180.66;;;14.04
79172;BMP280;68597;53.238;-1.418;2023-04-29T07:46:57;101173.09;;;14.12
79172;BMP280;68597;53.238;-1.418;2023-04-29T07:49:23;101167.88;;;14.16
79172;BMP280;68597;53.238;-1.418;2023-04-29T07:51:49;101180.63;;;14.31
79172;BMP280;68597;53.238;-1.418;2023-04-29T07:54:15;101185.81;;;14.40
79172;BMP280;68597;53.238;-1.418;2023-04-29T07:56:41;101173.25;;;14.41
79172;BMP280;68597;53.238;-1.418;2023-04-29T07:59:07;101184.25;;;14.52
79172;BMP280;68597;53.238;-1.418;2023-04-29T08:01:34;101182.06;;;14.58
79172;BMP280;68597;53.238;-1.418;2023-04-29T08:04:00;101157.47;;;14.51
79172;BMP280;68597;53.238;-1.418;2023-04-29T08:06:27;101177.69;;;14.70
79172;BMP280;68597;53.238;-1.418;2023-04-29T08:08:53;101187.22;;;14.80
79172;BMP280;68597;53.238;-1.418;2023-04-29T08:11:19;101180.84;;;14.87
79172;BMP280;68597;53.238;-1.418;2023-04-29T08:13:46;101180.03;;;14.92
79172;BMP280;68597;53.238;-1.418;2023-04-29T08:16:12;101187.72;;;14.99
79172;BMP280;68597;53.238;-1.418;2023-04-29T08:18:39;101175.41;;;15.02
79172;BMP280;68597;53.238;-1.418;2023-04-29T08:21:08;101178.47;;;15.12
79172;BMP280;68597;53.238;-1.418;2023-04-29T08:23:34;101182.66;;;15.18
79172;BMP280;68597;53.238;-1.418;2023-04-29T08:26:00;101165.59;;;15.16
79172;BMP280;68597;53.238;-1.418;2023-04-29T08:28:25;101165.50;;;15.29
79172;BMP280;68597;53.238;-1.418;2023-04-29T08:30:51;101193.25;;;15.54
79172;BMP280;68597;53.238;-1.418;2023-04-29T08:33:17;101200.31;;;15.68
79172;BMP280;68597;53.238;-1.418;2023-04-29T08:35:44;101197.41;;;15.81
79172;BMP280;68597;53.238;-1.418;2023-04-29T08:38:10;101187.28;;;15.85
79172;BMP280;68597;53.238;-1.418;2023-04-29T08:40:41;101191.13;;;16.03
79172;BMP280;68597;53.238;-1.418;2023-04-29T08:43:07;101196.81;;;16.18
79172;BMP280;68597;53.238;-1.418;2023-04-29T08:45:33;101195.38;;;16.32
79172;BMP280;68597;53.238;-1.418;2023-04-29T08:48:01;101187.50;;;16.38
79172;BMP280;68597;53.238;-1.418;2023-04-29T08:50:29;101201.25;;;16.49
79172;BMP280;68597;53.238;-1.418;2023-04-29T08:52:56;101198.81;;;16.53
79172;BMP280;68597;53.238;-1.418;2023-04-29T08:55:22;101201.09;;;16.63
79172;BMP280;68597;53.238;-1.418;2023-04-29T08:57:49;101195.81;;;16.67
79172;BMP280;68597;53.238;-1.418;2023-04-29T09:00:15;101206.19;;;16.79
79172;BMP280;68597;53.238;-1.418;2023-04-29T09:02:44;101200.75;;;16.89
79172;BMP280;68597;53.238;-1.418;2023-04-29T09:05:11;101207.72;;;17.03
79172;BMP280;68597;53.238;-1.418;2023-04-29T09:07:38;101208.69;;;17.21
79172;BMP280;68597;53.238;-1.418;2023-04-29T09:10:07;101225.22;;;17.39
79172;BMP280;68597;53.238;-1.418;2023-04-29T09:12:34;101223.72;;;17.53
79172;BMP280;68597;53.238;-1.418;2023-04-29T09:14:59;101218.59;;;17.67
79172;BMP280;68597;53.238;-1.418;2023-04-29T09:17:38;101221.41;;;17.82
79172;BMP280;68597;53.238;-1.418;2023-04-29T09:20:25;101226.97;;;18.05
79172;BMP280;68597;53.238;-1.418;2023-04-29T09:22:52;101227.81;;;18.30
79172;BMP280;68597;53.238;-1.418;2023-04-29T09:25:21;101233.72;;;18.49
79172;BMP280;68597;53.238;-1.418;2023-04-29T09:27:47;101213.50;;;18.60
79172;BMP280;68597;53.238;-1.418;2023-04-29T09:30:13;101234.59;;;18.91
79172;BMP280;68597;53.238;-1.418;2023-04-29T09:32:39;101217.03;;;18.93
79172;BMP280;68597;53.238;-1.418;2023-04-29T09:35:21;101236.09;;;19.17
79172;BMP280;68597;53.238;-1.418;2023-04-29T09:37:47;101235.56;;;19.36
79172;BMP280;68597;53.238;-1.418;2023-04-29T09:40:26;101236.56;;;19.48
79172;BMP280;68597;53.238;-1.418;2023-04-29T09:42:52;101235.56;;;19.70
79172;BMP280;68597;53.238;-1.418;2023-04-29T09:45:32;101226.88;;;20.02
79172;BMP280;68597;53.238;-1.418;2023-04-29T09:48:01;101239.00;;;20.30
79172;BMP280;68597;53.238;-1.418;2023-04-29T09:50:27;101233.97;;;20.38
79172;BMP280;68597;53.238;-1.418;2023-04-29T09:52:53;101235.00;;;20.33
79172;BMP280;68597;53.238;-1.418;2023-04-29T09:55:21;101238.41;;;20.31
79172;BMP280;68597;53.238;-1.418;2023-04-29T09:57:47;101219.50;;;20.16
79172;BMP280;68597;53.238;-1.418;2023-04-29T10:00:13;101224.22;;;20.31
79172;BMP280;68597;53.238;-1.418;2023-04-29T10:02:41;101222.72;;;20.30
79172;BMP280;68597;53.238;-1.418;2023-04-29T10:05:08;101225.13;;;20.34
79172;BMP280;68597;53.238;-1.418;2023-04-29T10:07:34;101230.97;;;20.36
79172;BMP280;68597;53.238;-1.418;2023-04-29T10:10:01;101229.81;;;20.39
79172;BMP280;68597;53.238;-1.418;2023-04-29T10:12:30;101226.47;;;20.33
79172;BMP280;68597;53.238;-1.418;2023-04-29T10:15:02;101224.28;;;20.14
79172;BMP280;68597;53.238;-1.418;2023-04-29T10:17:34;101237.06;;;20.05
79172;BMP280;68597;53.238;-1.418;2023-04-29T10:20:03;101233.03;;;19.91
79172;BMP280;68597;53.238;-1.418;2023-04-29T10:22:33;101242.56;;;19.86
79172;BMP280;68597;53.238;-1.418;2023-04-29T10:25:01;101248.75;;;19.75
79172;BMP280;68597;53.238;-1.418;2023-04-29T10:27:30;101216.53;;;19.46
79172;BMP280;68597;53.238;-1.418;2023-04-29T10:30:00;101236.38;;;19.63
79172;BMP280;68597;53.238;-1.418;2023-04-29T10:32:27;101237.31;;;19.66
79172;BMP280;68597;53.238;-1.418;2023-04-29T10:34:54;101230.66;;;19.88
79172;BMP280;68597;53.238;-1.418;2023-04-29T10:37:21;101234.84;;;20.31
79172;BMP280;68597;53.238;-1.418;2023-04-29T10:39:49;101237.72;;;20.67
79172;BMP280;68597;53.238;-1.418;2023-04-29T10:42:25;101213.41;;;20.83
79172;BMP280;68597;53.238;-1.418;2023-04-29T10:45:17;101240.03;;;21.33
79172;BMP280;68597;53.238;-1.418;2023-04-29T10:48:07;101243.44;;;21.89
79172;BMP280;68597;53.238;-1.418;2023-04-29T10:50:38;101223.59;;;22.29
79172;BMP280;68597;53.238;-1.418;2023-04-29T10:53:04;101228.88;;;22.54
79172;BMP280;68597;53.238;-1.418;2023-04-29T10:55:35;101242.50;;;22.65
79172;BMP280;68597;53.238;-1.418;2023-04-29T10:58:02;101238.53;;;22.49
79172;BMP280;68597;53.238;-1.418;2023-04-29T11:00:32;101240.97;;;22.24
79172;BMP280;68597;53.238;-1.418;2023-04-29T11:03:00;101237.38;;;22.33
79172;BMP280;68597;53.238;-1.418;2023-04-29T11:05:31;101243.78;;;22.43
79172;BMP280;68597;53.238;-1.418;2023-04-29T11:08:12;101238.06;;;22.43
79172;BMP280;68597;53.238;-1.418;2023-04-29T11:10:40;101233.31;;;22.46
79172;BMP280;68597;53.238;-1.418;2023-04-29T11:13:21;101235.22;;;22.43
79172;BMP280;68597;53.238;-1.418;2023-04-29T11:15:50;101237.88;;;22.10
79172;BMP280;68597;53.238;-1.418;2023-04-29T11:18:16;101246.13;;;21.78
79172;BMP280;68597;53.238;-1.418;2023-04-29T11:23:38;101215.66;;;20.94
79172;BMP280;68597;53.238;-1.418;2023-04-29T11:26:04;101215.41;;;20.63
79172;BMP280;68597;53.238;-1.418;2023-04-29T11:28:31;101239.59;;;20.55
79172;BMP280;68597;53.238;-1.418;2023-04-29T11:30:58;101236.81;;;20.38
79172;BMP280;68597;53.238;-1.418;2023-04-29T11:33:26;101233.78;;;20.26
79172;BMP280;68597;53.238;-1.418;2023-04-29T11:35:53;101233.69;;;20.16
79172;BMP280;68597;53.238;-1.418;2023-04-29T11:38:23;101213.19;;;19.91
79172;BMP280;68597;53.238;-1.418;2023-04-29T11:40:50;101233.22;;;19.93
79172;BMP280;68597;53.238;-1.418;2023-04-29T11:43:16;101234.25;;;19.88
79172;BMP280;68597;53.238;-1.418;2023-04-29T11:45:43;101210.97;;;19.73
79172;BMP280;68597;53.238;-1.418;2023-04-29T11:48:17;101229.38;;;19.81
79172;BMP280;68597;53.238;-1.418;2023-04-29T11:50:44;101218.88;;;19.74
79172;BMP280;68597;53.238;-1.418;2023-04-29T11:53:10;101221.38;;;19.87
79172;BMP280;68597;53.238;-1.418;2023-04-29T11:55:36;101217.13;;;19.96
79172;BMP280;68597;53.238;-1.418;2023-04-29T11:58:04;101219.22;;;19.95
79172;BMP280;68597;53.238;-1.418;2023-04-29T12:00:30;101214.56;;;19.90
79172;BMP280;68597;53.238;-1.418;2023-04-29T12:02:57;101210.34;;;19.91
79172;BMP280;68597;53.238;-1.418;2023-04-29T12:05:25;101214.00;;;20.01
79172;BMP280;68597;53.238;-1.418;2023-04-29T12:07:51;101204.63;;;20.25
79172;BMP280;68597;53.238;-1.418;2023-04-29T12:10:23;101221.28;;;20.75
79172;BMP280;68597;53.238;-1.418;2023-04-29T12:12:49;101192.72;;;21.09
79172;BMP280;68597;53.238;-1.418;2023-04-29T12:15:15;101205.00;;;21.40
79172;BMP280;68597;53.238;-1.418;2023-04-29T12:17:41;101198.25;;;21.26
79172;BMP280;68597;53.238;-1.418;2023-04-29T12:20:09;101208.84;;;21.16
79172;BMP280;68597;53.238;-1.418;2023-04-29T12:22:37;101197.47;;;21.16
79172;BMP280;68597;53.238;-1.418;2023-04-29T12:25:03;101214.56;;;21.35
79172;BMP280;68597;53.238;-1.418;2023-04-29T12:27:29;101219.06;;;21.77
79172;BMP280;68597;53.238;-1.418;2023-04-29T12:29:56;101218.56;;;22.09
79172;BMP280;68597;53.238;-1.418;2023-04-29T12:32:23;101223.59;;;22.29
79172;BMP280;68597;53.238;-1.418;2023-04-29T12:34:50;101218.38;;;22.26
79172;BMP280;68597;53.238;-1.418;2023-04-29T12:37:17;101212.56;;;22.14
79172;BMP280;68597;53.238;-1.418;2023-04-29T12:39:44;101201.00;;;22.22
79172;BMP280;68597;53.238;-1.418;2023-04-29T12:42:14;101207.13;;;22.28
79172;BMP280;68597;53.238;-1.418;2023-04-29T12:44:40;101212.03;;;22.37
79172;BMP280;68597;53.238;-1.418;2023-04-29T12:47:07;101209.97;;;22.28
79172;BMP280;68597;53.238;-1.418;2023-04-29T12:49:33;101207.72;;;22.26
79172;BMP280;68597;53.238;-1.418;2023-04-29T12:51:59;101212.56;;;22.14
79172;BMP280;68597;53.238;-1.418;2023-04-29T12:54:25;101217.38;;;22.02
79172;BMP280;68597;53.238;-1.418;2023-04-29T12:56:53;101211.88;;;21.76
79172;BMP280;68597;53.238;-1.418;2023-04-29T12:59:19;101220.41;;;21.47
79172;BMP280;68597;53.238;-1.418;2023-04-29T13:01:45;101216.66;;;21.16
79172;BMP280;68597;53.238;-1.418;2023-04-29T13:04:11;101216.13;;;20.90
79172;BMP280;68597;53.238;-1.418;2023-04-29T13:06:37;101221.28;;;20.75
79172;BMP280;68597;53.238;-1.418;2023-04-29T13:09:03;101213.47;;;20.66
79172;BMP280;68597;53.238;-1.418;2023-04-29T13:11:29;101218.22;;;20.54
79172;BMP280;68597;53.238;-1.418;2023-04-29T13:13:56;101209.50;;;20.42
79172;BMP280;68597;53.238;-1.418;2023-04-29T13:16:23;101211.63;;;20.24
79172;BMP280;68597;53.238;-1.418;2023-04-29T13:18:49;101200.84;;;20.13
79172;BMP280;68597;53.238;-1.418;2023-04-29T13:21:15;101187.91;;;20.03
79172;BMP280;68597;53.238;-1.418;2023-04-29T13:23:41;101211.69;;;20.07
79172;BMP280;68597;53.238;-1.418;2023-04-29T13:26:07;101179.00;;;19.89
79172;BMP280;68597;53.238;-1.418;2023-04-29T13:28:32;101205.59;;;19.94
79172;BMP280;68597;53.238;-1.418;2023-04-29T13:30:59;101212.22;;;19.96
79172;BMP280;68597;53.238;-1.418;2023-04-29T13:33:25;101215.19;;;19.98
79172;BMP280;68597;53.238;-1.418;2023-04-29T13:35:51;101215.63;;;19.95
79172;BMP280;68597;53.238;-1.418;2023-04-29T13:38:17;101213.19;;;19.91
79172;BMP280;68597;53.238;-1.418;2023-04-29T13:40:43;101207.13;;;19.78
79172;BMP280;68597;53.238;-1.418;2023-04-29T13:43:09;101199.06;;;19.57
79172;BMP280;68597;53.238;-1.418;2023-04-29T13:45:35;101220.56;;;19.60
79172;BMP280;68597;53.238;-1.418;2023-04-29T13:48:02;101205.72;;;19.35
79172;BMP280;68597;53.238;-1.418;2023-04-29T13:50:28;101213.25;;;19.32
79172;BMP280;68597;53.238;-1.418;2023-04-29T13:52:54;101206.25;;;19.16